createdAt,value
2018-07-09T00:01:30.680Z,6.07
2018-07-09T00:04:00.557Z,5.60
2018-07-09T00:06:30.452Z,6.00
2018-07-09T00:09:00.357Z,5.97
2018-07-09T00:11:30.288Z,6.47
2018-07-09T00:14:00.088Z,6.30
2018-07-09T00:16:30.040Z,6.07
2018-07-09T00:18:59.952Z,6.07
2018-07-09T00:21:29.856Z,6.27
2018-07-09T00:23:59.716Z,5.97
2018-07-09T00:26:29.724Z,6.37
2018-07-09T00:28:59.619Z,6.43
2018-07-09T00:31:29.580Z,6.50
2018-07-09T00:33:59.459Z,6.30
2018-07-09T00:36:29.316Z,6.70
2018-07-09T00:38:59.232Z,6.47
2018-07-09T00:41:29.255Z,6.70
2018-07-09T00:43:59.115Z,6.20
2018-07-09T00:46:29.340Z,6.30
2018-07-09T00:48:59.296Z,6.40
2018-07-09T00:51:29.312Z,5.77
2018-07-09T00:53:59.248Z,6.00
2018-07-09T00:56:29.101Z,6.03
2018-07-09T00:58:59.028Z,6.50
2018-07-09T01:01:28.967Z,5.70
2018-07-09T01:03:58.836Z,5.90
2018-07-09T01:06:28.756Z,6.27
2018-07-09T01:08:58.697Z,6.07
2018-07-09T01:11:39.776Z,6.17
2018-07-09T01:14:09.798Z,6.10
2018-07-09T01:16:39.638Z,5.87
2018-07-09T01:19:09.492Z,6.43
2018-07-09T01:21:39.375Z,6.47
2018-07-09T01:24:09.248Z,5.93
2018-07-09T01:26:39.248Z,6.30
2018-07-09T01:29:09.099Z,6.17
2018-07-09T01:31:39.028Z,6.37
2018-07-09T01:34:08.876Z,7.00
2018-07-09T01:36:38.714Z,6.60
2018-07-09T01:39:08.571Z,6.07
2018-07-09T01:41:38.408Z,6.57
2018-07-09T01:44:08.289Z,6.63
2018-07-09T01:46:38.184Z,6.87
2018-07-09T01:49:08.008Z,6.47
2018-07-09T01:51:37.952Z,6.43
2018-07-09T01:54:07.807Z,7.10
2018-07-09T01:56:37.664Z,7.00
2018-07-09T01:59:07.536Z,6.40
2018-07-09T02:01:37.364Z,6.83
2018-07-09T02:04:07.361Z,6.70
2018-07-09T02:06:37.214Z,6.20
2018-07-09T02:09:08.108Z,6.30
2018-07-09T02:11:38.587Z,6.30
2018-07-09T02:14:08.704Z,5.93
2018-07-09T02:16:38.560Z,6.17
2018-07-09T02:19:08.389Z,6.67
2018-07-09T02:21:38.269Z,6.07
2018-07-09T02:24:08.127Z,5.80
2018-07-09T02:26:37.996Z,6.27
2018-07-09T02:29:07.872Z,6.63
2018-07-09T02:31:37.740Z,6.23
2018-07-09T02:34:07.599Z,6.00
2018-07-09T02:36:37.424Z,6.97
2018-07-09T02:39:08.084Z,5.97
2018-07-09T02:41:37.940Z,6.50
2018-07-09T02:44:07.831Z,6.23
2018-07-09T02:46:37.737Z,6.37
2018-07-09T02:49:07.745Z,6.07
2018-07-09T02:51:37.518Z,6.63
2018-07-09T02:54:07.463Z,6.33
2018-07-09T02:56:37.329Z,6.00
2018-07-09T02:59:07.192Z,6.10
2018-07-09T03:01:37.022Z,6.00
2018-07-09T03:04:06.896Z,6.10
2018-07-09T03:06:36.769Z,6.60
2018-07-09T03:09:07.017Z,6.00
2018-07-09T03:11:37.183Z,5.80
2018-07-09T03:14:07.368Z,6.53
2018-07-09T03:16:37.348Z,5.77
2018-07-09T03:19:07.306Z,6.30
2018-07-09T03:21:37.257Z,6.30
2018-07-09T03:24:07.164Z,6.03
2018-07-09T03:26:37.024Z,6.03
2018-07-09T03:29:06.824Z,6.27
2018-07-09T03:31:36.700Z,6.53
2018-07-09T03:34:06.574Z,6.10
2018-07-09T03:36:36.426Z,6.00
2018-07-09T03:39:06.612Z,5.87
2018-07-09T03:41:36.524Z,6.10
2018-07-09T03:44:06.363Z,6.00
2018-07-09T03:46:36.284Z,5.67
2018-07-09T03:49:06.281Z,6.13
2018-07-09T03:51:36.147Z,5.30
2018-07-09T03:54:05.967Z,5.87
2018-07-09T03:56:35.820Z,5.80
2018-07-09T03:59:05.736Z,6.07
2018-07-09T04:01:35.570Z,6.10
2018-07-09T04:04:05.480Z,5.77
2018-07-09T04:06:35.288Z,5.50
2018-07-09T04:09:05.203Z,5.73
2018-07-09T04:11:34.978Z,5.90
2018-07-09T04:14:04.816Z,5.50
2018-07-09T04:16:34.684Z,5.90
2018-07-09T04:19:04.592Z,6.33
2018-07-09T04:21:34.456Z,5.80
2018-07-09T04:24:04.310Z,5.73
2018-07-09T04:26:34.189Z,5.50
2018-07-09T04:29:03.997Z,5.77
2018-07-09T04:31:33.833Z,5.80
2018-07-09T04:34:03.756Z,6.00
2018-07-09T04:36:33.615Z,5.80
2018-07-09T04:39:04.497Z,6.00
2018-07-09T04:41:34.364Z,6.10
2018-07-09T04:44:04.242Z,6.00
2018-07-09T04:46:34.098Z,5.80
2018-07-09T04:49:03.972Z,5.87
2018-07-09T04:51:33.893Z,5.47
2018-07-09T04:54:03.756Z,5.63
2018-07-09T04:56:33.600Z,5.53
2018-07-09T04:59:03.533Z,5.57
2018-07-09T05:01:33.360Z,5.27
2018-07-09T05:04:03.312Z,5.43
2018-07-09T05:06:33.150Z,5.73
2018-07-09T05:09:03.099Z,5.97
2018-07-09T05:11:32.904Z,6.03
2018-07-09T05:14:02.766Z,6.10
2018-07-09T05:16:32.579Z,6.17
2018-07-09T05:19:02.616Z,5.87
2018-07-09T05:21:32.460Z,5.97
2018-07-09T05:24:02.300Z,6.20
2018-07-09T05:26:32.152Z,6.50
2018-07-09T05:29:02.016Z,6.97
2018-07-09T05:31:31.916Z,6.53
2018-07-09T05:34:01.752Z,6.80
2018-07-09T05:36:31.622Z,7.10
2018-07-09T05:39:01.564Z,7.60
2018-07-09T05:41:31.691Z,7.40
2018-07-09T05:44:01.717Z,7.47
2018-07-09T05:46:31.800Z,7.17
2018-07-09T05:49:03.037Z,7.57
2018-07-09T05:51:33.049Z,7.53
2018-07-09T05:55:05.449Z,7.37
2018-07-09T05:57:35.337Z,7.70
2018-07-09T06:00:05.312Z,8.23
2018-07-09T06:02:35.191Z,7.47
2018-07-09T06:05:05.203Z,6.80
2018-07-09T06:07:35.097Z,7.23
2018-07-09T06:10:05.118Z,6.83
2018-07-09T06:12:35.082Z,7.60
2018-07-09T06:15:05.198Z,7.00
2018-07-09T06:17:35.140Z,6.90
2018-07-09T06:20:05.142Z,7.37
2018-07-09T06:22:34.989Z,7.00
2018-07-09T06:25:04.969Z,7.33
2018-07-09T06:27:34.814Z,7.20
2018-07-09T06:30:04.839Z,7.40
2018-07-09T06:32:34.781Z,7.03
2018-07-09T06:35:04.764Z,7.73
2018-07-09T06:37:34.956Z,8.10
2018-07-09T06:40:04.893Z,7.70
2018-07-09T06:42:34.743Z,7.60
2018-07-09T06:45:04.764Z,7.77
2018-07-09T06:47:34.600Z,7.43
2018-07-09T06:50:04.672Z,8.03
2018-07-09T06:52:34.636Z,7.60
2018-07-09T06:55:04.556Z,7.40
2018-07-09T06:57:34.552Z,8.00
2018-07-09T07:00:04.594Z,7.00
2018-07-09T07:02:34.552Z,7.90
2018-07-09T07:05:04.407Z,7.07
2018-07-09T07:07:34.348Z,7.83
2018-07-09T07:10:04.336Z,7.97
2018-07-09T07:12:34.269Z,8.80
2018-07-09T07:15:04.196Z,7.50
2018-07-09T07:17:34.141Z,8.43
2018-07-09T07:20:04.162Z,8.00
2018-07-09T07:22:34.338Z,7.97
2018-07-09T07:25:04.421Z,7.67
2018-07-09T07:27:34.355Z,7.50
2018-07-09T07:30:04.379Z,7.20
2018-07-09T07:32:34.273Z,7.83
2018-07-09T07:35:04.340Z,7.33
2018-07-09T07:37:34.352Z,8.63
2018-07-09T07:40:04.312Z,8.57
2018-07-09T07:42:34.254Z,8.60
2018-07-09T07:45:04.221Z,7.90
2018-07-09T07:47:34.260Z,7.70
2018-07-09T07:50:04.362Z,8.03
2018-07-09T07:52:34.361Z,7.57
2018-07-09T07:55:04.481Z,8.20
2018-07-09T07:57:34.474Z,8.80
2018-07-09T08:00:04.433Z,8.90
2018-07-09T08:02:34.420Z,8.00
2018-07-09T08:05:04.456Z,8.90
2018-07-09T08:07:35.106Z,7.83
2018-07-09T08:10:05.433Z,8.40
2018-07-09T08:15:05.476Z,8.30
2018-07-09T08:17:35.441Z,8.57
2018-07-09T08:20:05.876Z,7.83
2018-07-09T08:22:35.836Z,7.57
2018-07-09T08:25:05.897Z,8.50
2018-07-09T08:27:35.800Z,8.90
2018-07-09T08:30:05.832Z,8.20
2018-07-09T08:32:35.817Z,7.80
2018-07-09T08:35:05.693Z,8.00
2018-07-09T08:37:35.728Z,7.20
2018-07-09T08:40:05.812Z,7.43
2018-07-09T08:42:35.824Z,8.73
2018-07-09T08:45:06.180Z,7.50
2018-07-09T08:47:36.169Z,7.40
2018-07-09T08:50:06.357Z,7.30
2018-07-09T08:52:36.237Z,6.90
2018-07-09T08:55:06.209Z,8.07
2018-07-09T08:57:36.104Z,6.60
2018-07-09T09:00:06.109Z,6.70
2018-07-09T09:02:36.110Z,6.53
2018-07-09T09:05:06.080Z,6.33
2018-07-09T09:07:36.107Z,6.97
2018-07-09T09:10:06.143Z,7.27
2018-07-09T09:12:36.103Z,7.43
2018-07-09T09:15:06.049Z,7.53
2018-07-09T09:17:35.940Z,7.60
2018-07-09T09:20:05.838Z,6.63
2018-07-09T09:22:35.772Z,6.60
2018-07-09T09:25:05.872Z,7.60
2018-07-09T09:27:35.912Z,6.90
2018-07-09T09:30:06.420Z,7.37
2018-07-09T09:32:36.322Z,7.27
2018-07-09T09:35:06.264Z,7.77
2018-07-09T09:37:36.239Z,8.13
2018-07-09T09:40:06.244Z,7.00
2018-07-09T09:42:36.189Z,6.93
2018-07-09T09:45:06.132Z,7.67
2018-07-09T09:47:35.988Z,8.77
2018-07-09T09:50:05.955Z,6.97
2018-07-09T09:52:35.862Z,6.83
2018-07-09T09:55:05.874Z,8.23
2018-07-09T09:57:35.774Z,7.53
2018-07-09T10:00:06.106Z,7.00
2018-07-09T10:02:35.960Z,7.60
2018-07-09T10:05:05.912Z,7.27
2018-07-09T10:07:35.786Z,7.00
2018-07-09T10:10:05.696Z,6.83
2018-07-09T10:12:35.543Z,6.67
2018-07-09T10:15:05.489Z,6.80
2018-07-09T10:17:35.378Z,6.60
2018-07-09T10:20:05.366Z,6.53
2018-07-09T10:22:35.226Z,6.70
2018-07-09T10:25:05.196Z,6.23
2018-07-09T10:27:35.122Z,6.80
2018-07-09T10:30:05.433Z,6.37
2018-07-09T10:32:35.353Z,5.77
2018-07-09T10:35:05.295Z,6.30
2018-07-09T10:37:35.176Z,5.83
2018-07-09T10:40:05.545Z,6.50
2018-07-09T10:42:35.482Z,6.10
2018-07-09T10:45:05.432Z,6.03
2018-07-09T10:47:35.375Z,5.60
2018-07-09T10:50:05.427Z,5.90
2018-07-09T10:52:35.330Z,7.60
2018-07-09T10:55:05.489Z,5.67
2018-07-09T10:57:35.396Z,5.73
2018-07-09T11:00:05.692Z,5.73
2018-07-09T11:02:35.676Z,6.03
2018-07-09T11:05:05.724Z,6.63
2018-07-09T11:07:35.596Z,5.30
2018-07-09T11:10:05.560Z,6.67
2018-07-09T11:12:35.388Z,6.10
2018-07-09T11:15:05.508Z,6.47
2018-07-09T11:17:35.372Z,6.43
2018-07-09T11:20:05.487Z,6.50
2018-07-09T11:22:35.452Z,6.60
2018-07-09T11:25:05.484Z,6.57
2018-07-09T11:27:35.503Z,6.37
2018-07-09T11:30:05.533Z,6.53
2018-07-09T11:32:35.524Z,6.60
2018-07-09T11:35:05.370Z,6.33
2018-07-09T11:37:35.399Z,6.23
2018-07-09T11:40:05.462Z,6.50
2018-07-09T11:42:35.360Z,6.27
2018-07-09T11:45:05.305Z,5.43
2018-07-09T11:47:35.272Z,6.20
2018-07-09T11:50:05.416Z,5.80
2018-07-09T11:52:35.368Z,5.67
2018-07-09T11:55:05.364Z,6.10
2018-07-09T11:57:35.242Z,6.70
2018-07-09T12:00:05.594Z,5.83
2018-07-09T12:02:35.572Z,5.70
2018-07-09T12:05:05.820Z,6.17
2018-07-09T12:07:35.707Z,7.63
2018-07-09T12:10:06.096Z,6.00
2018-07-09T12:12:36.056Z,5.00
2018-07-09T12:15:06.208Z,6.30
2018-07-09T12:17:36.017Z,7.87
2018-07-09T12:20:05.930Z,6.50
2018-07-09T12:22:35.766Z,6.73
2018-07-09T12:25:05.816Z,6.37
2018-07-09T12:27:35.792Z,6.83
2018-07-09T12:30:05.736Z,7.20
2018-07-09T12:32:35.644Z,7.17
2018-07-09T12:35:05.556Z,7.83
2018-07-09T12:37:35.414Z,8.20
2018-07-09T12:40:05.373Z,8.10
2018-07-09T12:42:35.260Z,7.13
2018-07-09T12:45:05.272Z,7.40
2018-07-09T12:47:35.191Z,7.10
2018-07-09T12:50:05.144Z,7.27
2018-07-09T12:52:35.008Z,7.30
2018-07-09T12:55:04.911Z,7.00
2018-07-09T12:57:34.775Z,7.37
2018-07-09T13:00:04.860Z,7.73
2018-07-09T13:02:34.749Z,7.70
2018-07-09T13:05:04.696Z,7.10
2018-07-09T13:07:35.283Z,6.97
2018-07-09T13:10:05.423Z,7.70
2018-07-09T13:12:35.275Z,7.33
2018-07-09T13:15:05.320Z,8.17
2018-07-09T13:17:35.206Z,8.27
2018-07-09T13:20:05.291Z,8.73
2018-07-09T13:22:35.252Z,9.53
2018-07-09T13:25:05.401Z,8.93
2018-07-09T13:27:35.356Z,9.00
2018-07-09T13:30:05.549Z,8.50
2018-07-09T13:32:35.529Z,9.23
2018-07-09T13:35:05.476Z,8.90
2018-07-09T13:37:35.572Z,8.10
2018-07-09T13:40:05.530Z,8.63
2018-07-09T13:42:35.562Z,9.00
2018-07-09T13:45:05.653Z,8.27
2018-07-09T13:47:35.622Z,8.27
2018-07-09T13:50:05.861Z,7.90
2018-07-09T13:52:35.831Z,7.90
2018-07-09T13:55:06.009Z,7.77
2018-07-09T13:57:36.084Z,8.10
2018-07-09T14:00:06.513Z,8.97
2018-07-09T14:02:36.356Z,8.20
2018-07-09T14:05:06.303Z,8.80
2018-07-09T14:07:36.208Z,8.97
2018-07-09T14:10:06.132Z,9.00
2018-07-09T14:12:36.101Z,8.70
2018-07-09T14:15:06.227Z,8.83
2018-07-09T14:17:36.205Z,7.60
2018-07-09T14:20:22.124Z,7.97
2018-07-09T14:22:52.232Z,8.63
2018-07-09T14:25:22.049Z,8.27
2018-07-09T14:27:52.873Z,8.90
2018-07-09T14:30:22.844Z,9.13
2018-07-09T14:32:52.698Z,9.37
2018-07-09T14:35:22.611Z,10.17
2018-07-09T14:37:52.403Z,9.53
2018-07-09T14:40:22.379Z,10.37
2018-07-09T14:42:52.268Z,9.80
2018-07-09T14:45:22.133Z,9.73
2018-07-09T14:47:52.022Z,10.33
2018-07-09T14:50:21.908Z,10.43
2018-07-09T14:52:51.736Z,11.50
2018-07-09T14:55:21.556Z,11.07
2018-07-09T14:57:51.432Z,10.93
2018-07-09T15:00:21.360Z,11.07
2018-07-09T15:02:51.259Z,11.57
2018-07-09T15:05:21.145Z,11.20
2018-07-09T15:07:51.021Z,10.90
2018-07-09T15:10:20.856Z,11.13
2018-07-09T15:12:50.692Z,10.80
2018-07-09T15:15:20.503Z,11.40
2018-07-09T15:17:50.395Z,10.17
2018-07-09T15:20:20.189Z,9.47
2018-07-09T15:22:50.019Z,10.27
2018-07-09T15:25:19.865Z,10.23
2018-07-09T15:27:49.733Z,10.70
2018-07-09T15:30:19.548Z,10.43
2018-07-09T15:32:49.419Z,10.30
2018-07-09T15:35:19.223Z,10.20
2018-07-09T15:37:49.112Z,10.07
2018-07-09T15:40:18.881Z,9.50
2018-07-09T15:42:48.697Z,8.37
2018-07-09T15:45:18.472Z,8.83
2018-07-09T15:47:48.244Z,8.23
2018-07-09T15:50:18.068Z,8.40
2018-07-09T15:52:47.868Z,8.27
2018-07-09T15:55:17.692Z,8.97
2018-07-09T15:57:47.508Z,8.40
2018-07-09T16:00:17.364Z,9.33
2018-07-09T16:02:47.176Z,9.23
2018-07-09T16:05:17.000Z,9.33
2018-07-09T16:07:46.804Z,8.67
2018-07-09T16:10:16.640Z,8.33
2018-07-09T16:12:46.437Z,8.97
2018-07-09T16:15:16.308Z,8.63
2018-07-09T16:17:46.122Z,8.30
2018-07-09T16:20:15.971Z,9.23
2018-07-09T16:22:45.852Z,8.77
2018-07-09T16:25:15.672Z,9.20
2018-07-09T16:27:45.484Z,9.13
2018-07-09T16:30:15.265Z,9.43
2018-07-09T16:32:45.176Z,9.13
2018-07-09T16:35:14.954Z,8.33
2018-07-09T16:37:44.781Z,8.77
2018-07-09T16:40:14.599Z,9.23
2018-07-09T16:42:44.522Z,8.20
2018-07-09T16:45:14.320Z,8.57
2018-07-09T16:47:44.172Z,8.33
2018-07-09T16:50:14.017Z,8.30
2018-07-09T16:52:43.890Z,7.90
2018-07-09T16:55:13.688Z,8.67
2018-07-09T16:57:43.515Z,8.53
2018-07-09T17:00:13.375Z,8.23
2018-07-09T17:02:43.196Z,7.97
2018-07-09T17:05:13.010Z,8.30
2018-07-09T17:07:43.013Z,8.13
2018-07-09T17:10:12.781Z,8.80
2018-07-09T17:12:42.605Z,8.50
2018-07-09T17:15:12.484Z,8.17
2018-07-09T17:17:42.293Z,8.77
2018-07-09T17:20:12.129Z,9.00
2018-07-09T17:22:41.944Z,8.57
2018-07-09T17:25:11.804Z,9.17
2018-07-09T17:27:41.580Z,8.30
2018-07-09T17:30:11.403Z,9.53
2018-07-09T17:32:41.305Z,9.40
2018-07-09T17:35:11.175Z,10.10
2018-07-09T17:37:41.004Z,9.50
2018-07-09T17:40:11.008Z,8.40
2018-07-09T17:42:40.804Z,8.73
2018-07-09T17:45:10.628Z,9.17
2018-07-09T17:47:40.448Z,9.40
2018-07-09T17:50:10.341Z,8.93
2018-07-09T17:52:40.181Z,8.90
2018-07-09T17:55:10.012Z,8.90
2018-07-09T17:57:39.835Z,9.30
2018-07-09T18:00:09.712Z,9.40
2018-07-09T18:02:39.559Z,9.00
2018-07-09T18:05:09.393Z,9.47
2018-07-09T18:07:39.308Z,9.97
2018-07-09T18:10:09.200Z,9.97
2018-07-09T18:12:38.988Z,10.00
2018-07-09T18:15:08.848Z,10.37
2018-07-09T18:17:38.660Z,9.83
2018-07-09T18:20:08.452Z,10.20
2018-07-09T18:22:38.276Z,10.40
2018-07-09T18:25:08.540Z,10.90
2018-07-09T18:27:38.620Z,10.57
2018-07-09T18:30:08.456Z,10.00
2018-07-09T18:32:38.298Z,10.27
2018-07-09T18:35:08.225Z,9.90
2018-07-09T18:37:38.094Z,10.37
2018-07-09T18:40:07.904Z,9.77
2018-07-09T18:42:37.691Z,10.90
2018-07-09T18:45:07.652Z,10.20
2018-07-09T18:47:37.484Z,10.07
2018-07-09T18:50:07.349Z,9.73
2018-07-09T18:52:38.220Z,9.43
2018-07-09T18:55:08.100Z,9.33
2018-07-09T18:57:37.888Z,9.53
2018-07-09T19:00:07.821Z,8.47
2018-07-09T19:02:37.631Z,8.27
2018-07-09T19:05:07.406Z,8.60
2018-07-09T19:07:37.205Z,8.83
2018-07-09T19:10:07.104Z,8.37
2018-07-09T19:12:37.858Z,8.37
2018-07-09T19:15:09.021Z,8.10
2018-07-09T19:17:59.845Z,7.40
2018-07-09T19:20:40.440Z,8.00
2018-07-09T19:23:09.450Z,7.57
2018-07-09T19:25:38.426Z,7.43
2018-07-09T19:28:08.010Z,7.63
2018-07-09T19:30:36.396Z,8.00
2018-07-09T19:33:04.725Z,8.00
2018-07-09T19:35:33.092Z,7.80
2018-07-09T19:38:01.678Z,8.00
2018-07-09T19:40:29.932Z,7.70
2018-07-09T19:42:58.345Z,7.37
2018-07-09T19:45:26.669Z,8.10
2018-07-09T19:47:55.053Z,7.43
2018-07-09T19:50:23.464Z,7.30
2018-07-09T19:52:51.860Z,6.90
2018-07-09T19:55:20.293Z,7.50
2018-07-09T19:57:48.676Z,7.57
2018-07-09T20:00:17.104Z,7.70
2018-07-09T20:02:45.432Z,7.90
2018-07-09T20:05:13.757Z,7.47
2018-07-09T20:07:42.168Z,7.87
2018-07-09T20:10:15.730Z,7.27
2018-07-09T20:12:49.140Z,7.90
2018-07-09T20:15:22.507Z,7.87
2018-07-09T20:17:50.911Z,7.03
2018-07-09T20:20:19.297Z,7.60
2018-07-09T20:22:47.763Z,8.07
2018-07-09T20:25:16.187Z,7.67
2018-07-09T20:27:44.612Z,8.10
2018-07-09T20:30:12.972Z,8.10
2018-07-09T20:32:41.363Z,7.70
2018-07-09T20:35:09.790Z,8.37
2018-07-09T20:37:38.168Z,8.63
2018-07-09T20:40:06.650Z,8.57
2018-07-09T20:42:34.996Z,9.53
2018-07-09T20:45:03.313Z,8.53
2018-07-09T20:47:31.700Z,9.30
2018-07-09T20:50:00.117Z,8.67
2018-07-09T20:52:28.527Z,8.57
2018-07-09T20:54:57.090Z,8.53
2018-07-09T20:57:25.411Z,8.37
2018-07-09T20:59:53.798Z,8.67
2018-07-09T21:02:22.208Z,9.53
2018-07-09T21:04:50.652Z,9.13
2018-07-09T21:07:19.033Z,9.50
2018-07-09T21:09:47.445Z,9.37
2018-07-09T21:12:15.808Z,9.47
2018-07-09T21:14:44.216Z,9.80
2018-07-09T21:17:12.543Z,9.23
2018-07-09T21:19:40.872Z,10.00
2018-07-09T21:22:09.376Z,8.97
2018-07-09T21:24:37.792Z,9.97
2018-07-09T21:27:06.144Z,9.47
2018-07-09T21:29:34.471Z,8.97
2018-07-09T21:32:02.828Z,9.33
2018-07-09T21:34:31.162Z,9.43
2018-07-09T21:36:59.529Z,9.50
2018-07-09T21:39:27.860Z,9.23
2018-07-09T21:41:56.296Z,9.67
2018-07-09T21:44:24.628Z,9.40
2018-07-09T21:46:52.987Z,9.80
2018-07-09T21:49:21.320Z,9.20
2018-07-09T21:51:49.683Z,9.60
2018-07-09T21:54:18.008Z,9.97
2018-07-09T21:56:46.369Z,8.97
2018-07-09T21:59:14.708Z,9.63
2018-07-09T22:01:43.081Z,9.23
2018-07-09T22:04:11.421Z,9.43
2018-07-09T22:06:39.828Z,10.00
2018-07-09T22:09:08.168Z,9.20
2018-07-09T22:11:36.535Z,9.33
2018-07-09T22:14:04.876Z,9.43
2018-07-09T22:16:33.252Z,10.10
2018-07-09T22:19:01.656Z,8.63
2018-07-09T22:21:29.983Z,8.93
2018-07-09T22:23:58.343Z,9.60
2018-07-09T22:26:26.668Z,9.40
2018-07-09T22:28:55.041Z,9.73
2018-07-09T22:31:24.947Z,9.63
2018-07-09T22:33:54.767Z,10.03
2018-07-09T22:36:24.599Z,10.20
2018-07-09T22:38:54.420Z,10.03
2018-07-09T22:41:24.223Z,10.53
2018-07-09T22:44:04.880Z,10.27
2018-07-09T22:46:34.652Z,10.43
2018-07-09T22:49:04.477Z,10.33
2018-07-09T22:51:34.324Z,10.47
2018-07-09T22:54:04.428Z,10.87
2018-07-09T22:56:34.255Z,10.30
2018-07-09T22:59:04.149Z,10.37
2018-07-09T23:01:33.940Z,10.33
2018-07-09T23:04:03.832Z,10.70
2018-07-09T23:06:33.663Z,10.70
2018-07-09T23:11:34.288Z,10.70
2018-07-09T23:16:43.272Z,10.63
2018-07-09T23:19:28.925Z,11.03
2018-07-09T23:22:09.640Z,10.47
2018-07-09T23:24:37.976Z,12.00
2018-07-09T23:27:06.389Z,11.20
2018-07-09T23:29:34.793Z,10.90
2018-07-09T23:32:03.208Z,11.60
2018-07-09T23:34:31.620Z,10.80
2018-07-09T23:37:00.024Z,11.30
2018-07-09T23:39:28.462Z,11.17
2018-07-09T23:41:56.939Z,11.53
2018-07-09T23:44:25.308Z,11.97
2018-07-09T23:46:53.764Z,10.67
2018-07-09T23:49:22.167Z,10.27
2018-07-09T23:51:50.617Z,10.87
2018-07-09T23:54:19.027Z,11.10
2018-07-09T23:56:56.204Z,10.07
2018-07-09T23:59:36.973Z,10.73
